createdAt,value
2022-11-23T00:01:32.673Z,3.53
2022-11-23T00:04:07.736Z,3.97
2022-11-23T00:06:35.500Z,4.30
2022-11-23T00:09:02.871Z,4.18
2022-11-23T00:11:30.538Z,4.35
2022-11-23T00:13:58.086Z,4.47
2022-11-23T00:16:28.615Z,4.70
2022-11-23T00:18:59.318Z,4.75
2022-11-23T00:21:28.867Z,4.32
2022-11-23T00:26:23.963Z,4.30
2022-11-23T00:28:51.324Z,4.93
2022-11-23T00:31:20.123Z,4.65
2022-11-23T00:33:54.649Z,4.82
2022-11-23T00:36:28.012Z,3.85
2022-11-23T00:38:55.693Z,4.45
2022-11-23T00:41:24.813Z,4.78
2022-11-23T00:43:52.365Z,4.63
2022-11-23T00:46:23.570Z,4.82
2022-11-23T00:48:53.944Z,4.47
2022-11-23T00:51:25.259Z,4.40
2022-11-23T00:53:53.108Z,5.07
2022-11-23T00:56:21.104Z,4.25
2022-11-23T00:58:53.554Z,4.75
2022-11-23T01:01:28.059Z,3.85
2022-11-23T01:03:58.322Z,4.07
2022-11-23T01:06:31.909Z,4.03
2022-11-23T01:09:05.885Z,5.10
2022-11-23T01:11:33.421Z,3.92
2022-11-23T01:14:01.053Z,4.53
2022-11-23T01:16:30.919Z,4.38
2022-11-23T01:19:05.302Z,4.28
2022-11-23T01:21:33.867Z,3.90
2022-11-23T01:24:04.825Z,3.95
2022-11-23T01:26:32.337Z,4.05
2022-11-23T01:28:59.658Z,4.45
2022-11-23T01:31:26.998Z,3.97
2022-11-23T01:33:55.436Z,4.15
2022-11-23T01:36:24.808Z,3.83
2022-11-23T01:38:52.301Z,3.70
2022-11-23T01:41:24.932Z,3.65
2022-11-23T01:43:52.564Z,4.55
2022-11-23T01:46:20.418Z,4.40
2022-11-23T01:48:58.320Z,3.70
2022-11-23T01:51:29.199Z,4.07
2022-11-23T01:56:28.923Z,3.83
2022-11-23T01:58:59.090Z,4.20
2022-11-23T02:01:27.869Z,3.88
2022-11-23T02:03:59.270Z,3.88
2022-11-23T02:06:27.178Z,4.30
2022-11-23T02:08:54.604Z,4.10
2022-11-23T02:11:21.804Z,4.75
2022-11-23T02:13:50.321Z,4.10
2022-11-23T02:16:18.401Z,4.22
2022-11-23T02:18:48.732Z,4.40
2022-11-23T02:21:16.563Z,4.80
2022-11-23T02:24:00.194Z,4.13
2022-11-23T02:26:32.876Z,3.88
2022-11-23T02:29:07.653Z,4.07
2022-11-23T02:31:35.067Z,4.55
2022-11-23T02:34:02.426Z,4.25
2022-11-23T02:36:42.522Z,4.05
2022-11-23T02:41:54.363Z,4.45
2022-11-23T02:44:55.800Z,4.28
2022-11-23T02:47:23.092Z,3.90
2022-11-23T02:49:50.237Z,4.38
2022-11-23T02:52:19.134Z,4.93
2022-11-23T02:54:46.865Z,4.53
2022-11-23T02:57:14.278Z,4.22
2022-11-23T02:59:45.488Z,3.85
2022-11-23T03:02:12.660Z,3.85
2022-11-23T03:04:40.505Z,3.85
2022-11-23T03:07:07.795Z,3.67
2022-11-23T03:09:35.652Z,5.00
2022-11-23T03:12:03.388Z,4.13
2022-11-23T03:14:30.714Z,3.58
2022-11-23T03:16:59.769Z,3.35
2022-11-23T03:19:30.853Z,4.43
2022-11-23T03:21:58.321Z,4.32
2022-11-23T03:24:26.855Z,4.30
2022-11-23T03:26:56.051Z,3.85
2022-11-23T03:29:26.430Z,3.83
2022-11-23T03:31:55.212Z,4.45
2022-11-23T03:34:23.578Z,3.80
2022-11-23T03:36:51.520Z,4.13
2022-11-23T03:39:19.918Z,4.00
2022-11-23T03:42:11.042Z,4.22
2022-11-23T03:44:38.937Z,4.25
2022-11-23T03:47:06.250Z,4.22
2022-11-23T03:49:35.659Z,4.63
2022-11-23T03:52:04.244Z,4.68
2022-11-23T03:54:31.443Z,4.80
2022-11-23T03:56:59.384Z,4.50
2022-11-23T03:59:26.601Z,4.22
2022-11-23T04:01:53.839Z,4.68
2022-11-23T04:04:26.105Z,4.25
2022-11-23T04:07:05.847Z,3.97
2022-11-23T04:09:38.348Z,4.82
2022-11-23T04:12:06.081Z,4.50
2022-11-23T04:14:36.572Z,4.78
2022-11-23T04:17:04.074Z,4.85
2022-11-23T04:19:31.831Z,4.35
2022-11-23T04:21:59.453Z,5.13
2022-11-23T04:24:29.324Z,4.13
2022-11-23T04:26:59.118Z,4.60
2022-11-23T04:29:26.446Z,4.43
2022-11-23T04:31:55.003Z,5.18
2022-11-23T04:34:22.755Z,4.95
2022-11-23T04:36:52.150Z,5.77
2022-11-23T04:39:24.451Z,5.60
2022-11-23T04:42:14.826Z,4.95
2022-11-23T04:44:48.284Z,5.05
2022-11-23T04:47:16.013Z,5.97
2022-11-23T04:49:44.967Z,6.03
2022-11-23T04:52:12.499Z,4.95
2022-11-23T04:54:45.537Z,5.47
2022-11-23T04:57:12.767Z,5.07
2022-11-23T04:59:40.848Z,5.22
2022-11-23T05:02:08.248Z,5.05
2022-11-23T05:04:50.578Z,5.93
2022-11-23T05:07:19.542Z,4.78
2022-11-23T05:09:53.332Z,5.45
2022-11-23T05:12:21.904Z,4.53
2022-11-23T05:14:49.240Z,4.72
2022-11-23T05:17:21.774Z,4.45
2022-11-23T05:19:51.549Z,4.45
2022-11-23T05:22:19.124Z,4.30
2022-11-23T05:24:46.306Z,4.18
2022-11-23T05:27:18.120Z,4.10
2022-11-23T05:29:46.152Z,3.90
2022-11-23T05:32:14.301Z,4.18
2022-11-23T05:34:42.470Z,4.07
2022-11-23T05:37:11.316Z,4.03
2022-11-23T05:39:47.560Z,4.07
2022-11-23T05:42:15.536Z,4.28
2022-11-23T05:44:43.373Z,4.25
2022-11-23T05:47:20.234Z,3.65
2022-11-23T05:49:49.821Z,3.45
2022-11-23T05:52:21.198Z,3.55
2022-11-23T05:54:48.615Z,3.60
2022-11-23T05:57:17.815Z,3.85
2022-11-23T05:59:46.227Z,4.18
2022-11-23T06:02:18.501Z,4.28
2022-11-23T06:04:47.831Z,4.15
2022-11-23T06:07:18.926Z,3.85
2022-11-23T06:10:12.712Z,3.80
2022-11-23T06:12:45.858Z,3.92
2022-11-23T06:15:16.412Z,3.38
2022-11-23T06:17:45.516Z,4.20
2022-11-23T06:20:16.828Z,4.43
2022-11-23T06:22:54.265Z,4.00
2022-11-23T06:25:23.735Z,4.30
2022-11-23T06:28:05.690Z,3.83
2022-11-23T06:30:41.955Z,3.90
2022-11-23T06:33:09.636Z,3.33
2022-11-23T06:35:56.479Z,3.97
2022-11-23T06:38:26.722Z,4.30
2022-11-23T06:41:08.043Z,3.70
2022-11-23T06:43:35.332Z,4.10
2022-11-23T06:46:07.553Z,3.75
2022-11-23T06:48:38.926Z,3.60
2022-11-23T06:51:07.702Z,3.45
2022-11-23T06:53:36.920Z,3.63
2022-11-23T06:56:08.155Z,3.42
2022-11-23T06:58:36.832Z,4.27
2022-11-23T07:01:09.384Z,3.53
2022-11-23T07:03:45.144Z,4.22
2022-11-23T07:06:22.486Z,3.67
2022-11-23T07:08:55.349Z,4.25
2022-11-23T07:11:36.754Z,4.43
2022-11-23T07:14:04.088Z,3.80
2022-11-23T07:16:31.404Z,4.45
2022-11-23T07:18:58.695Z,3.50
2022-11-23T07:21:26.566Z,3.92
2022-11-23T07:23:54.044Z,3.50
2022-11-23T07:26:21.334Z,3.05
2022-11-23T07:28:48.918Z,3.47
2022-11-23T07:31:16.648Z,3.50
2022-11-23T07:33:45.428Z,3.30
2022-11-23T07:36:13.271Z,2.75
2022-11-23T07:38:42.605Z,4.20
2022-11-23T07:41:10.746Z,3.30
2022-11-23T07:43:52.061Z,3.53
2022-11-23T07:46:19.711Z,3.10
2022-11-23T07:48:46.999Z,3.47
2022-11-23T07:51:16.131Z,3.17
2022-11-23T07:53:43.335Z,3.25
2022-11-23T07:56:10.542Z,3.20
2022-11-23T07:58:37.881Z,3.00
2022-11-23T08:01:05.181Z,3.13
2022-11-23T08:03:32.477Z,2.75
2022-11-23T08:05:59.880Z,4.07
2022-11-23T08:08:27.505Z,3.35
2022-11-23T08:10:54.919Z,3.30
2022-11-23T08:13:22.504Z,3.05
2022-11-23T08:15:54.903Z,3.60
2022-11-23T08:18:24.171Z,3.55
2022-11-23T08:20:51.476Z,3.47
2022-11-23T08:23:18.789Z,3.28
2022-11-23T08:25:46.096Z,3.10
2022-11-23T08:28:13.265Z,3.47
2022-11-23T08:30:40.507Z,3.08
2022-11-23T08:33:08.935Z,12.50
2022-11-23T08:35:37.340Z,4.63
2022-11-23T08:38:05.661Z,4.50
2022-11-23T08:40:33.630Z,4.38
2022-11-23T08:43:00.927Z,4.28
2022-11-23T08:45:28.186Z,4.43
2022-11-23T08:48:00.867Z,4.38
2022-11-23T08:50:29.384Z,4.72
2022-11-23T08:52:57.820Z,6.95
2022-11-23T08:55:26.871Z,5.18
2022-11-23T08:57:58.216Z,5.72
2022-11-23T09:00:26.359Z,5.45
2022-11-23T09:02:53.867Z,3.08
2022-11-23T09:05:21.128Z,3.08
2022-11-23T09:07:48.408Z,3.72
2022-11-23T09:10:18.579Z,4.88
2022-11-23T09:12:48.069Z,7.90
2022-11-23T09:15:15.615Z,3.97
2022-11-23T09:17:42.995Z,3.28
2022-11-23T09:20:10.492Z,2.83
2022-11-23T09:22:38.480Z,2.95
2022-11-23T09:25:07.270Z,2.78
2022-11-23T09:27:34.701Z,2.65
2022-11-23T09:30:02.219Z,2.70
2022-11-23T09:32:29.628Z,2.80
2022-11-23T09:34:56.870Z,4.68
2022-11-23T09:37:24.587Z,3.85
2022-11-23T09:39:51.815Z,3.40
2022-11-23T09:42:34.568Z,3.80
2022-11-23T09:45:10.893Z,3.25
2022-11-23T09:47:38.206Z,3.15
2022-11-23T09:50:15.020Z,2.85
2022-11-23T09:52:45.826Z,2.85
2022-11-23T09:55:26.245Z,2.47
2022-11-23T09:57:58.952Z,2.72
2022-11-23T10:00:27.452Z,2.20
2022-11-23T10:02:54.682Z,3.85
2022-11-23T10:05:26.749Z,3.42
2022-11-23T10:08:12.677Z,2.92
2022-11-23T10:10:45.784Z,3.40
2022-11-23T10:13:34.148Z,3.10
2022-11-23T10:16:39.499Z,2.55
2022-11-23T10:19:17.452Z,2.67
2022-11-23T10:21:58.256Z,2.97
2022-11-23T10:24:31.751Z,2.90
2022-11-23T10:26:59.207Z,2.50
2022-11-23T10:29:32.371Z,2.53
2022-11-23T10:32:01.074Z,2.30
2022-11-23T10:34:56.182Z,2.40
2022-11-23T10:37:23.358Z,2.70
2022-11-23T10:39:50.558Z,4.15
2022-11-23T10:42:31.238Z,6.22
2022-11-23T10:45:00.023Z,3.10
2022-11-23T10:47:41.702Z,2.30
2022-11-23T10:50:40.812Z,2.80
2022-11-23T10:53:10.856Z,2.42
2022-11-23T10:58:31.313Z,2.55
2022-11-23T11:01:02.647Z,3.70
2022-11-23T11:03:33.054Z,3.25
2022-11-23T11:06:09.879Z,2.92
2022-11-23T11:08:50.573Z,2.70
2022-11-23T11:11:33.803Z,2.50
2022-11-23T11:14:06.458Z,2.35
2022-11-23T11:16:36.161Z,2.47
2022-11-23T11:19:25.394Z,2.30
2022-11-23T11:21:52.781Z,2.20
2022-11-23T11:24:36.517Z,2.13
2022-11-23T11:27:06.850Z,2.50
2022-11-23T11:29:39.718Z,2.55
2022-11-23T11:32:27.873Z,2.20
2022-11-23T11:35:20.785Z,3.55
2022-11-23T11:37:50.455Z,14.13
2022-11-23T11:40:19.352Z,12.77
2022-11-23T11:43:11.521Z,4.85
2022-11-23T11:45:59.753Z,3.88
2022-11-23T11:48:39.994Z,3.28
2022-11-23T11:51:12.335Z,3.75
2022-11-23T11:53:54.938Z,10.23
2022-11-23T11:56:34.892Z,7.68
2022-11-23T11:59:47.289Z,15.40
2022-11-23T12:02:23.121Z,13.25
2022-11-23T12:05:05.413Z,10.80
2022-11-23T12:08:11.794Z,11.18
2022-11-23T12:10:50.732Z,5.53
2022-11-23T12:13:38.821Z,3.60
2022-11-23T12:16:42.017Z,4.07
2022-11-23T12:19:15.933Z,5.05
2022-11-23T12:22:12.355Z,4.22
2022-11-23T12:24:52.268Z,3.85
2022-11-23T12:27:29.777Z,3.17
2022-11-23T12:30:28.055Z,4.05
2022-11-23T12:33:20.190Z,15.38
2022-11-23T12:36:05.980Z,3.03
2022-11-23T12:38:39.086Z,2.72
2022-11-23T12:41:16.838Z,2.75
2022-11-23T12:43:53.417Z,2.25
2022-11-23T12:46:51.711Z,3.10
2022-11-23T12:49:39.490Z,2.65
2022-11-23T12:52:31.524Z,2.53
2022-11-23T12:55:06.903Z,3.28
2022-11-23T12:57:39.496Z,2.78
2022-11-23T13:00:14.668Z,3.08
2022-11-23T13:02:57.255Z,2.35
2022-11-23T13:05:39.217Z,2.75
2022-11-23T13:08:46.640Z,3.03
2022-11-23T13:11:33.781Z,3.42
2022-11-23T13:14:13.609Z,3.13
2022-11-23T13:17:08.679Z,2.40
2022-11-23T13:20:04.339Z,3.03
2022-11-23T13:22:32.234Z,3.15
2022-11-23T13:25:21.480Z,3.05
2022-11-23T13:27:48.710Z,4.10
2022-11-23T13:30:23.242Z,3.88
2022-11-23T13:33:16.619Z,2.53
2022-11-23T13:35:44.188Z,3.90
2022-11-23T13:38:14.122Z,2.83
2022-11-23T13:40:43.567Z,3.95
2022-11-23T13:43:22.875Z,3.55
2022-11-23T13:46:23.581Z,3.17
2022-11-23T13:48:57.439Z,2.45
2022-11-23T13:51:27.471Z,3.05
2022-11-23T13:54:02.507Z,2.92
2022-11-23T13:56:37.715Z,2.67
2022-11-23T13:59:23.518Z,2.83
2022-11-23T14:02:17.400Z,3.30
2022-11-23T14:04:46.894Z,2.88
2022-11-23T14:07:23.495Z,2.78
2022-11-23T14:09:50.770Z,3.25
2022-11-23T14:12:30.149Z,3.20
2022-11-23T14:15:03.467Z,2.55
2022-11-23T14:17:52.804Z,3.17
2022-11-23T14:20:48.047Z,2.80
2022-11-23T14:23:18.265Z,2.70
2022-11-23T14:25:54.349Z,2.30
2022-11-23T14:28:40.211Z,2.40
2022-11-23T14:31:22.668Z,2.42
2022-11-23T14:34:15.058Z,2.25
2022-11-23T14:36:59.527Z,2.65
2022-11-23T14:39:53.526Z,2.08
2022-11-23T14:42:23.789Z,2.67
2022-11-23T14:44:52.613Z,2.08
2022-11-23T14:47:28.638Z,2.30
2022-11-23T14:49:56.085Z,2.72
2022-11-23T14:52:32.301Z,2.13
2022-11-23T14:55:03.235Z,2.60
2022-11-23T14:57:39.934Z,3.10
2022-11-23T15:00:21.252Z,3.00
2022-11-23T15:02:49.415Z,2.53
2022-11-23T15:05:24.004Z,2.60
2022-11-23T15:08:13.191Z,2.47
2022-11-23T15:11:01.029Z,2.50
2022-11-23T15:13:34.148Z,2.70
2022-11-23T15:16:04.030Z,2.10
2022-11-23T15:18:37.891Z,2.63
2022-11-23T15:21:27.591Z,3.00
2022-11-23T15:23:57.422Z,3.05
2022-11-23T15:29:37.619Z,3.13
2022-11-23T15:32:30.523Z,2.97
2022-11-23T15:35:08.178Z,2.85
2022-11-23T15:37:44.683Z,3.58
2022-11-23T15:40:16.431Z,3.30
2022-11-23T15:42:44.931Z,3.63
2022-11-23T15:45:34.411Z,2.83
2022-11-23T15:48:07.439Z,3.60
2022-11-23T15:50:36.705Z,3.22
2022-11-23T15:53:03.936Z,3.07
2022-11-23T15:55:31.758Z,3.08
2022-11-23T15:58:00.546Z,4.60
2022-11-23T16:00:28.023Z,3.55
2022-11-23T16:03:26.141Z,3.60
2022-11-23T16:06:13.648Z,3.65
2022-11-23T16:08:41.316Z,3.55
2022-11-23T16:11:32.320Z,3.70
2022-11-23T16:14:20.111Z,4.55
2022-11-23T16:16:48.810Z,3.65
2022-11-23T16:19:21.628Z,3.30
2022-11-23T16:21:49.187Z,4.68
2022-11-23T16:24:20.206Z,4.22
2022-11-23T16:26:47.656Z,4.55
2022-11-23T16:29:21.609Z,4.22
2022-11-23T16:31:57.406Z,4.18
2022-11-23T16:34:25.085Z,3.92
2022-11-23T16:36:53.013Z,4.22
2022-11-23T16:39:20.238Z,3.47
2022-11-23T16:41:47.590Z,3.75
2022-11-23T16:44:14.743Z,4.43
2022-11-23T16:46:43.758Z,4.05
2022-11-23T16:49:19.524Z,4.18
2022-11-23T16:51:56.224Z,4.47
2022-11-23T16:54:25.406Z,3.92
2022-11-23T16:56:53.650Z,3.42
2022-11-23T16:59:22.781Z,4.32
2022-11-23T17:01:55.519Z,4.38
2022-11-23T17:04:25.280Z,4.80
2022-11-23T17:06:52.613Z,4.20
2022-11-23T17:09:19.831Z,4.13
2022-11-23T17:11:50.709Z,4.32
2022-11-23T17:14:19.706Z,4.63
2022-11-23T17:16:47.949Z,4.35
2022-11-23T17:19:16.528Z,4.40
2022-11-23T17:21:44.280Z,4.60
2022-11-23T17:24:12.920Z,4.75
2022-11-23T17:26:42.600Z,4.80
2022-11-23T17:29:16.504Z,5.00
2022-11-23T17:31:45.664Z,4.75
2022-11-23T17:34:13.624Z,4.03
2022-11-23T17:36:42.142Z,4.22
2022-11-23T17:39:17.834Z,5.65
2022-11-23T17:41:45.127Z,5.88
2022-11-23T17:44:12.362Z,4.72
2022-11-23T17:46:39.696Z,5.55
2022-11-23T17:49:12.084Z,4.55
2022-11-23T17:51:39.521Z,4.80
2022-11-23T17:54:06.753Z,4.57
2022-11-23T17:56:34.265Z,4.82
2022-11-23T17:59:01.457Z,4.97
2022-11-23T18:01:30.178Z,4.45
2022-11-23T18:04:01.363Z,4.35
2022-11-23T18:06:29.439Z,4.70
2022-11-23T18:08:57.001Z,4.90
2022-11-23T18:11:24.787Z,4.30
2022-11-23T18:13:52.344Z,7.78
2022-11-23T18:16:20.608Z,8.98
2022-11-23T18:18:48.491Z,7.97
2022-11-23T18:21:15.694Z,6.80
2022-11-23T18:23:43.240Z,7.53
2022-11-23T18:26:18.247Z,6.45
2022-11-23T18:28:46.230Z,5.90
2022-11-23T18:31:13.757Z,5.10
2022-11-23T18:33:41.152Z,5.13
2022-11-23T18:36:10.525Z,4.95
2022-11-23T18:38:39.828Z,5.70
2022-11-23T18:41:07.652Z,5.35
2022-11-23T18:43:35.123Z,5.30
2022-11-23T18:46:05.951Z,5.55
2022-11-23T18:48:34.379Z,6.35
2022-11-23T18:51:02.958Z,6.57
2022-11-23T18:53:31.038Z,7.07
2022-11-23T18:56:04.964Z,8.82
2022-11-23T18:58:40.567Z,13.55
2022-11-23T19:01:12.127Z,6.35
2022-11-23T19:03:41.630Z,5.53
2022-11-23T19:06:12.019Z,5.82
2022-11-23T19:08:46.904Z,6.32
2022-11-23T19:11:18.020Z,6.38
2022-11-23T19:13:50.068Z,5.40
2022-11-23T19:16:21.437Z,5.97
2022-11-23T19:18:54.484Z,6.28
2022-11-23T19:21:24.276Z,6.60
2022-11-23T19:23:53.148Z,6.25
2022-11-23T19:26:20.830Z,6.22
2022-11-23T19:28:48.085Z,5.78
2022-11-23T19:31:19.354Z,5.57
2022-11-23T19:33:48.127Z,6.20
2022-11-23T19:36:22.884Z,6.05
2022-11-23T19:38:51.183Z,6.47
2022-11-23T19:41:18.819Z,6.50
2022-11-23T19:43:46.254Z,5.95
2022-11-23T19:46:14.552Z,5.90
2022-11-23T19:48:42.143Z,7.07
2022-11-23T19:51:13.443Z,5.60
2022-11-23T19:53:41.652Z,5.00
2022-11-23T19:56:25.728Z,7.25
2022-11-23T19:58:54.804Z,7.15
2022-11-23T20:01:24.065Z,6.03
2022-11-23T20:03:53.604Z,6.00
2022-11-23T20:06:28.717Z,5.70
2022-11-23T20:08:59.295Z,6.30
2022-11-23T20:11:28.287Z,5.20
2022-11-23T20:13:56.068Z,6.50
2022-11-23T20:16:24.466Z,6.60
2022-11-23T20:19:00.153Z,7.30
2022-11-23T20:21:28.923Z,6.30
2022-11-23T20:24:04.872Z,5.63
2022-11-23T20:26:36.045Z,6.25
2022-11-23T20:29:05.112Z,5.90
2022-11-23T20:31:33.143Z,6.07
2022-11-23T20:34:00.975Z,5.82
2022-11-23T20:36:34.771Z,6.03
2022-11-23T20:39:06.715Z,6.32
2022-11-23T20:41:35.879Z,6.20
2022-11-23T20:44:13.764Z,6.05
2022-11-23T20:49:29.830Z,5.13
2022-11-23T20:51:57.451Z,6.22
2022-11-23T20:54:24.684Z,4.55
2022-11-23T20:56:53.108Z,5.60
2022-11-23T20:59:20.710Z,6.03
2022-11-23T21:01:48.110Z,6.60
2022-11-23T21:04:15.363Z,5.78
2022-11-23T21:06:42.710Z,6.03
2022-11-23T21:09:11.088Z,5.82
2022-11-23T21:11:56.820Z,7.75
2022-11-23T21:14:27.601Z,5.63
2022-11-23T21:16:59.268Z,7.18
2022-11-23T21:19:28.298Z,5.95
2022-11-23T21:21:57.139Z,6.32
2022-11-23T21:24:25.029Z,6.10
2022-11-23T21:26:52.308Z,5.30
2022-11-23T21:29:19.948Z,5.47
2022-11-23T21:31:48.702Z,5.22
2022-11-23T21:34:19.714Z,5.60
2022-11-23T21:36:47.488Z,4.72
2022-11-23T21:39:14.964Z,5.53
2022-11-23T21:41:42.509Z,5.80
2022-11-23T21:44:10.122Z,5.38
2022-11-23T21:46:38.586Z,5.78
2022-11-23T21:49:06.728Z,6.10
2022-11-23T21:51:34.701Z,4.95
2022-11-23T21:54:04.655Z,4.93
2022-11-23T21:56:32.180Z,5.50
2022-11-23T21:58:59.798Z,5.47
2022-11-23T22:01:32.026Z,6.38
2022-11-23T22:04:08.964Z,5.60
2022-11-23T22:06:37.424Z,5.28
2022-11-23T22:09:05.140Z,5.70
2022-11-23T22:11:34.103Z,6.75
2022-11-23T22:14:07.333Z,5.32
2022-11-23T22:16:42.616Z,4.22
2022-11-23T22:19:14.321Z,6.47
2022-11-23T22:21:43.542Z,5.97
2022-11-23T22:24:13.162Z,5.07
2022-11-23T22:26:40.809Z,5.65
2022-11-23T22:29:08.136Z,6.03
2022-11-23T22:31:36.161Z,5.57
2022-11-23T22:34:05.698Z,5.95
2022-11-23T22:36:33.293Z,5.93
2022-11-23T22:39:02.837Z,6.10
2022-11-23T22:41:36.206Z,5.45
2022-11-23T22:44:04.802Z,6.20
2022-11-23T22:46:32.066Z,6.95
2022-11-23T22:48:59.630Z,6.10
2022-11-23T22:51:28.752Z,6.28
2022-11-23T22:53:58.045Z,5.90
2022-11-23T22:56:26.657Z,6.73
2022-11-23T22:58:54.097Z,6.32
2022-11-23T23:01:24.064Z,6.50
2022-11-23T23:03:55.730Z,5.90
2022-11-23T23:06:26.399Z,7.47
2022-11-23T23:08:56.048Z,5.70
2022-11-23T23:11:24.884Z,5.75
2022-11-23T23:13:52.813Z,5.57
2022-11-23T23:16:20.420Z,6.25
2022-11-23T23:18:47.754Z,6.22
2022-11-23T23:21:17.252Z,6.82
2022-11-23T23:23:46.673Z,6.55
2022-11-23T23:26:16.617Z,5.90
2022-11-23T23:28:43.992Z,6.43
2022-11-23T23:31:14.705Z,6.28
2022-11-23T23:33:42.896Z,5.97
2022-11-23T23:36:21.936Z,6.07
2022-11-23T23:38:49.831Z,5.13
2022-11-23T23:41:17.240Z,5.65
2022-11-23T23:43:44.535Z,6.78
2022-11-23T23:46:13.726Z,6.35
2022-11-23T23:48:41.216Z,5.80
2022-11-23T23:51:20.154Z,5.80
2022-11-23T23:53:47.731Z,6.05
2022-11-23T23:56:21.653Z,5.72
2022-11-23T23:58:49.140Z,5.65
